Time;durP1;ratioP1;P1;durP2;ratioP2;P2;SDS_P1;SDS_P2;PMS_P1;PMS_P2;Temp;Humidity;BMP_temperature;BMP_pressure;BME280_temperature;BME280_humidity;BME280_pressure;Samples;Min_cycle;Max_cycle;Signal;HPM_P1;HPM_P2
2021/10/09 00:04:10;;;;;;;17.15;7.40;;;;;;;;;;10324175;28;20068;-65
2021/10/09 00:09:10;;;;;;;17.88;8.10;;;;;;;;;;10323636;28;20103;-64
2021/10/09 00:14:10;;;;;;;17.02;6.78;;;;;;;;;;10323711;28;20413;-65
2021/10/09 00:19:08;;;;;;;12.13;6.57;;;;;;;;;;10323502;28;20072;-64
2021/10/09 00:24:06;;;;;;;17.65;7.80;;;;;;;;;;10323231;28;20041;-64
2021/10/09 00:29:06;;;;;;;14.85;8.70;;;;;;;;;;10323328;28;20365;-64
2021/10/09 00:34:05;;;;;;;12.85;7.72;;;;;;;;;;10323151;28;20076;-64
2021/10/09 00:39:03;;;;;;;43.03;20.85;;;;;;;;;;10322824;28;20080;-64
2021/10/09 00:44:13;;;;;;;12.05;7.22;;;;;;;;;;10322705;28;20084;-64
2021/10/09 00:49:15;;;;;;;19.63;7.90;;;;;;;;;;10322437;28;20076;-64
2021/10/09 00:54:14;;;;;;;18.92;8.30;;;;;;;;;;10321377;28;20048;-64
2021/10/09 00:59:14;;;;;;;14.05;6.28;;;;;;;;;;10322002;28;20485;-64
2021/10/09 01:04:12;;;;;;;11.95;7.68;;;;;;;;;;10320142;28;20060;-64
2021/10/09 01:09:11;;;;;;;13.57;8.10;;;;;;;;;;10319964;28;20048;-63
2021/10/09 01:14:10;;;;;;;12.10;7.50;;;;;;;;;;10321488;28;20052;-64
2021/10/09 01:19:10;;;;;;;11.38;8.13;;;;;;;;;;10319527;28;20482;-63
2021/10/09 01:24:15;;;;;;;17.53;7.90;;;;;;;;;;10319581;28;20048;-63
2021/10/09 01:29:14;;;;;;;16.60;7.70;;;;;;;;;;10319478;28;20049;-64
2021/10/09 01:34:20;;;;;;;11.38;7.22;;;;;;;;;;10319301;28;20060;-63
2021/10/09 01:39:21;;;;;;;14.18;8.13;;;;;;;;;;10318674;28;20536;-64
2021/10/09 01:44:22;;;;;;;17.83;7.57;;;;;;;;;;10318917;28;20053;-64
2021/10/09 01:49:26;;;;;;;18.17;7.90;;;;;;;;;;10318633;28;20045;-64
2021/10/09 01:54:29;;;;;;;12.93;7.07;;;;;;;;;;10318205;28;20045;-64
2021/10/09 01:59:27;;;;;;;18.30;10.88;;;;;;;;;;10318039;28;20051;-64
2021/10/09 02:04:33;;;;;;;17.33;7.90;;;;;;;;;;10317766;28;20045;-64
2021/10/09 02:09:34;;;;;;;14.07;7.63;;;;;;;;;;10317699;28;20485;-64
2021/10/09 02:14:39;;;;;;;16.77;6.85;;;;;;;;;;10317992;28;20053;-64
2021/10/09 02:25:14;;;;;;;12.52;7.80;;;;;;;;;;10317113;28;19922;-64
2021/10/09 02:30:13;;;;;;;14.70;7.65;;;;;;;;;;10316980;28;20489;-62
2021/10/09 02:35:13;;;;;;;18.75;8.10;;;;;;;;;;10316773;28;20305;-63
2021/10/09 02:40:15;;;;;;;12.40;7.55;;;;;;;;;;10316212;28;20052;-64
2021/10/09 02:45:13;;;;;;;16.20;7.80;;;;;;;;;;10316358;28;20049;-64
2021/10/09 02:50:13;;;;;;;17.20;7.55;;;;;;;;;;10316029;28;20088;-65
2021/10/09 02:55:18;;;;;;;17.38;8.82;;;;;;;;;;10318233;28;20052;-64
2021/10/09 03:00:18;;;;;;;17.42;9.27;;;;;;;;;;10315197;28;20060;-64
2021/10/09 03:05:19;;;;;;;17.35;6.70;;;;;;;;;;10315394;28;20524;-64
2021/10/09 03:10:19;;;;;;;15.40;8.18;;;;;;;;;;10315588;28;20494;-64
2021/10/09 03:15:17;;;;;;;13.95;6.75;;;;;;;;;;10314342;28;20044;-64
2021/10/09 03:20:17;;;;;;;14.40;7.18;;;;;;;;;;10315494;28;20084;-64
2021/10/09 03:25:16;;;;;;;15.00;8.75;;;;;;;;;;10315305;28;20056;-65
2021/10/09 03:30:18;;;;;;;11.90;7.22;;;;;;;;;;10314663;28;20068;-64
2021/10/09 03:35:16;;;;;;;11.50;6.88;;;;;;;;;;10315429;28;20072;-64
2021/10/09 03:40:19;;;;;;;14.98;6.85;;;;;;;;;;10314988;28;20421;-64
2021/10/09 03:45:26;;;;;;;15.68;7.40;;;;;;;;;;10315037;28;20048;-65
2021/10/09 03:52:22;;;;;;;11.98;6.22;;;;;;;;;;10314949;28;20166;-64
2021/10/09 03:55:52;;;;;;;12.45;7.20;;;;;;;;;;10314309;28;20049;-64
2021/10/09 04:00:52;;;;;;;10.15;6.47;;;;;;;;;;10314502;28;20056;-64
2021/10/09 04:05:51;;;;;;;15.02;7.18;;;;;;;;;;10314439;28;20060;-64
2021/10/09 04:10:51;;;;;;;13.50;6.80;;;;;;;;;;10314490;28;20052;-64
2021/10/09 04:15:51;;;;;;;15.80;9.07;;;;;;;;;;10313852;28;20649;-64
2021/10/09 04:20:50;;;;;;;17.92;8.00;;;;;;;;;;10313608;28;20055;-65
2021/10/09 04:25:49;;;;;;;16.25;7.85;;;;;;;;;;10313871;28;20052;-64
2021/10/09 04:30:48;;;;;;;15.07;7.65;;;;;;;;;;10320772;28;20048;-65
2021/10/09 04:35:50;;;;;;;18.50;7.97;;;;;;;;;;10320617;28;20048;-64
2021/10/09 04:40:49;;;;;;;21.77;8.20;;;;;;;;;;10320811;28;20486;-63
2021/10/09 04:45:47;;;;;;;15.40;8.63;;;;;;;;;;10321119;28;20044;-63
2021/10/09 04:50:46;;;;;;;17.38;9.43;;;;;;;;;;10320322;28;20040;-64
2021/10/09 04:55:47;;;;;;;33.78;18.73;;;;;;;;;;10320701;28;20495;-63
2021/10/09 05:00:46;;;;;;;20.77;13.45;;;;;;;;;;10320426;28;20421;-63
2021/10/09 05:05:45;;;;;;;20.73;10.52;;;;;;;;;;10319715;28;20060;-64
2021/10/09 05:10:45;;;;;;;14.18;8.90;;;;;;;;;;10320083;28;20048;-64
2021/10/09 05:15:49;;;;;;;19.63;13.20;;;;;;;;;;10316426;28;20057;-63
2021/10/09 05:20:51;;;;;;;23.13;12.25;;;;;;;;;;10294901;28;20076;-63
2021/10/09 05:25:52;;;;;;;18.10;9.13;;;;;;;;;;10319366;28;20059;-64
2021/10/09 05:31:00;;;;;;;21.10;10.32;;;;;;;;;;10303782;28;20502;-63
2021/10/09 05:36:00;;;;;;;17.35;9.75;;;;;;;;;;10286733;28;20053;-64
2021/10/09 05:40:58;;;;;;;18.58;9.13;;;;;;;;;;10276797;28;20087;-63
2021/10/09 05:46:04;;;;;;;18.50;11.75;;;;;;;;;;10277803;28;20430;-64
2021/10/09 05:51:05;;;;;;;20.88;11.73;;;;;;;;;;10278193;28;20442;-64
2021/10/09 05:56:09;;;;;;;20.42;12.52;;;;;;;;;;10277057;28;20053;-64
2021/10/09 06:44:03;;;;;;;31.65;16.70;;;;;;;;;;10290931;28;20049;-62
2021/10/09 06:59:33;;;;;;;26.20;15.70;;;;;;;;;;10269032;28;20087;-64
2021/10/09 07:04:34;;;;;;;29.83;16.35;;;;;;;;;;10274952;28;20049;-64
2021/10/09 07:09:34;;;;;;;22.42;13.43;;;;;;;;;;10274746;28;20045;-64
2021/10/09 07:14:35;;;;;;;22.75;16.10;;;;;;;;;;10272222;28;20053;-64
2021/10/09 07:19:36;;;;;;;22.85;17.15;;;;;;;;;;10286386;28;20091;-64
2021/10/09 07:24:34;;;;;;;25.02;16.55;;;;;;;;;;10289854;28;20453;-63
2021/10/09 07:29:33;;;;;;;21.25;14.07;;;;;;;;;;10292857;28;20438;-63
2021/10/09 07:34:33;;;;;;;28.55;15.65;;;;;;;;;;10304457;28;20057;-63
2021/10/09 07:39:32;;;;;;;26.95;12.40;;;;;;;;;;10296412;28;20083;-63
2021/10/09 07:44:32;;;;;;;23.40;16.80;;;;;;;;;;10291156;28;20343;-65
2021/10/09 07:49:31;;;;;;;43.45;24.98;;;;;;;;;;10287579;28;20069;-65
2021/10/09 07:54:29;;;;;;;43.03;29.52;;;;;;;;;;10278935;28;20071;-64
2021/10/09 07:59:29;;;;;;;27.90;17.60;;;;;;;;;;10287941;28;20068;-66
2021/10/09 08:04:29;;;;;;;24.85;15.10;;;;;;;;;;10290362;28;20199;-63
2021/10/09 08:09:31;;;;;;;28.25;14.13;;;;;;;;;;10286234;28;20052;-62
2021/10/09 08:14:30;;;;;;;22.13;13.05;;;;;;;;;;10290580;28;20079;-63
2021/10/09 08:19:29;;;;;;;28.10;13.25;;;;;;;;;;10294815;28;20540;-64
2021/10/09 08:24:32;;;;;;;29.48;17.20;;;;;;;;;;10279901;28;20084;-62
2021/10/09 08:40:05;;;;;;;23.70;13.30;;;;;;;;;;10284631;28;20072;-63
2021/10/09 08:45:05;;;;;;;20.92;13.63;;;;;;;;;;10312398;28;20068;-62
2021/10/09 08:50:06;;;;;;;25.30;14.90;;;;;;;;;;10281074;28;20537;-61
2021/10/09 08:55:20;;;;;;;28.25;14.60;;;;;;;;;;10299269;28;20518;-64
2021/10/09 09:00:22;;;;;;;25.63;13.32;;;;;;;;;;10273567;28;20489;-63
2021/10/09 09:05:26;;;;;;;23.50;13.65;;;;;;;;;;10291580;28;20060;-64
2021/10/09 09:26:27;;;;;;;27.27;20.80;;;;;;;;;;10292021;28;20071;-62
2021/10/09 09:42:02;;;;;;;38.72;22.63;;;;;;;;;;10276703;28;20077;-63
2021/10/09 09:47:03;;;;;;;24.23;16.88;;;;;;;;;;10290719;28;20076;-61
2021/10/09 09:52:22;;;;;;;20.70;11.48;;;;;;;;;;10282221;28;20075;-62
2021/10/09 09:57:21;;;;;;;24.23;14.45;;;;;;;;;;10276734;28;20073;-62
2021/10/09 10:02:21;;;;;;;21.90;13.93;;;;;;;;;;10297335;28;20462;-63
2021/10/09 10:07:21;;;;;;;23.98;12.25;;;;;;;;;;10272679;28;20071;-63
2021/10/09 10:12:20;;;;;;;29.90;15.07;;;;;;;;;;10279928;28;20073;-63
2021/10/09 10:17:33;;;;;;;35.00;20.50;;;;;;;;;;10275038;28;20045;-62
2021/10/09 10:22:48;;;;;;;37.15;20.35;;;;;;;;;;10274169;28;20071;-63
2021/10/09 10:27:57;;;;;;;31.93;18.10;;;;;;;;;;10273369;28;20072;-62
2021/10/09 10:33:18;;;;;;;24.67;15.50;;;;;;;;;;10288964;28;20048;-63
2021/10/09 10:38:35;;;;;;;34.75;16.15;;;;;;;;;;10274288;28;20092;-63
2021/10/09 10:43:44;;;;;;;19.63;13.00;;;;;;;;;;10265306;28;20506;-63
2021/10/09 10:48:43;;;;;;;20.45;12.35;;;;;;;;;;10274082;28;20104;-63
2021/10/09 10:54:15;;;;;;;34.65;19.92;;;;;;;;;;10282765;28;20075;-63
2021/10/09 10:59:31;;;;;;;21.83;14.73;;;;;;;;;;10284662;28;20080;-64
2021/10/09 11:04:34;;;;;;;37.03;16.25;;;;;;;;;;10274343;28;20083;-62
2021/10/09 11:09:33;;;;;;;38.33;19.10;;;;;;;;;;10287172;28;20073;-63
2021/10/09 11:14:33;;;;;;;23.17;13.73;;;;;;;;;;10273732;28;20069;-63
2021/10/09 11:19:42;;;;;;;26.73;13.38;;;;;;;;;;10289857;28;20080;-63
2021/10/09 11:24:41;;;;;;;19.45;12.00;;;;;;;;;;10272634;28;20068;-62
2021/10/09 11:29:42;;;;;;;22.23;13.10;;;;;;;;;;10272487;28;20514;-62
2021/10/09 11:34:49;;;;;;;24.50;13.15;;;;;;;;;;10292677;28;20068;-62
2021/10/09 11:39:49;;;;;;;27.38;16.58;;;;;;;;;;10280520;28;20076;-62
2021/10/09 11:45:04;;;;;;;26.85;13.63;;;;;;;;;;10284197;28;20065;-62
2021/10/09 11:55:20;;;;;;;21.58;12.93;;;;;;;;;;10283358;28;20076;-62
2021/10/09 12:00:37;;;;;;;27.67;17.00;;;;;;;;;;10282160;28;20083;-62
2021/10/09 12:11:12;;;;;;;23.85;12.60;;;;;;;;;;10311502;27;20379;-62
2021/10/09 12:16:10;;;;;;;23.80;12.20;;;;;;;;;;10313150;28;20618;-62
2021/10/09 12:21:09;;;;;;;25.58;11.73;;;;;;;;;;10322836;28;20071;-62
2021/10/09 12:26:17;;;;;;;27.13;11.93;;;;;;;;;;10328837;28;20040;-62
2021/10/09 12:31:26;;;;;;;21.60;11.48;;;;;;;;;;10326646;28;20079;-62
2021/10/09 12:36:32;;;;;;;40.75;15.02;;;;;;;;;;10327978;28;20057;-63
2021/10/09 12:41:32;;;;;;;22.90;14.10;;;;;;;;;;10314325;28;20068;-63
2021/10/09 12:46:30;;;;;;;25.52;11.73;;;;;;;;;;10317148;28;20075;-63
2021/10/09 12:51:34;;;;;;;26.67;10.30;;;;;;;;;;10317116;28;20447;-63
2021/10/09 12:56:34;;;;;;;27.75;13.73;;;;;;;;;;10316234;28;20455;-63
2021/10/09 13:01:33;;;;;;;23.88;9.80;;;;;;;;;;10316307;28;20071;-63
2021/10/09 13:06:31;;;;;;;33.17;12.63;;;;;;;;;;10316591;28;20197;-63
2021/10/09 13:11:35;;;;;;;23.88;13.85;;;;;;;;;;10315459;28;20524;-63
2021/10/09 13:16:35;;;;;;;21.98;12.80;;;;;;;;;;10305579;28;20072;-63
2021/10/09 13:21:33;;;;;;;20.73;12.05;;;;;;;;;;10289875;28;20064;-63
2021/10/09 13:26:32;;;;;;;23.30;13.30;;;;;;;;;;10297041;28;20072;-63
2021/10/09 13:31:30;;;;;;;27.27;12.18;;;;;;;;;;10284026;28;20053;-63
2021/10/09 13:36:30;;;;;;;21.80;11.82;;;;;;;;;;10298269;28;20087;-63
2021/10/09 13:41:29;;;;;;;23.92;12.82;;;;;;;;;;10284956;28;20512;-63
2021/10/09 13:46:28;;;;;;;26.27;9.15;;;;;;;;;;10281430;28;20053;-63
2021/10/09 13:51:27;;;;;;;34.60;10.50;;;;;;;;;;10277205;28;20064;-63
2021/10/09 13:56:26;;;;;;;25.83;10.98;;;;;;;;;;10277383;28;20083;-63
2021/10/09 14:01:25;;;;;;;25.48;11.80;;;;;;;;;;10277438;28;20068;-63
2021/10/09 14:06:23;;;;;;;29.25;16.35;;;;;;;;;;10289993;28;20087;-63
2021/10/09 14:11:21;;;;;;;50.13;25.38;;;;;;;;;;10282914;28;20075;-63
2021/10/09 14:16:21;;;;;;;27.00;13.32;;;;;;;;;;10293640;28;20056;-63
2021/10/09 14:21:20;;;;;;;22.42;13.25;;;;;;;;;;10291355;28;20054;-63
2021/10/09 14:26:18;;;;;;;23.80;10.77;;;;;;;;;;10296232;28;20482;-63
2021/10/09 14:31:16;;;;;;;21.23;11.40;;;;;;;;;;10280063;28;20072;-63
2021/10/09 14:36:16;;;;;;;19.52;9.85;;;;;;;;;;10296125;28;20072;-63
2021/10/09 14:41:14;;;;;;;20.75;10.73;;;;;;;;;;10280912;28;20079;-62
2021/10/09 14:46:41;;;;;;;24.83;10.90;;;;;;;;;;10285761;28;20056;-63
2021/10/09 14:51:45;;;;;;;26.30;15.00;;;;;;;;;;10284990;28;20075;-63
2021/10/09 15:23:15;;;;;;;28.98;14.93;;;;;;;;;;10292748;28;20068;-63
2021/10/09 15:28:14;;;;;;;25.20;11.50;;;;;;;;;;10280283;28;20076;-63
2021/10/09 15:33:15;;;;;;;27.02;12.35;;;;;;;;;;10290187;28;20060;-63
2021/10/09 15:38:14;;;;;;;26.27;14.68;;;;;;;;;;10283992;28;20489;-62
2021/10/09 15:43:25;;;;;;;21.65;12.57;;;;;;;;;;10284778;28;20068;-63
2021/10/09 15:48:24;;;;;;;19.58;11.48;;;;;;;;;;10273467;28;20473;-63
2021/10/09 15:53:22;;;;;;;28.20;14.50;;;;;;;;;;10273122;28;20072;-63
2021/10/09 15:58:21;;;;;;;36.35;16.98;;;;;;;;;;10273077;28;20490;-64
2021/10/09 16:03:21;;;;;;;32.33;15.85;;;;;;;;;;10273173;28;20061;-63
2021/10/09 16:08:19;;;;;;;34.90;18.02;;;;;;;;;;10286040;28;20084;-63
2021/10/09 16:13:22;;;;;;;29.23;19.75;;;;;;;;;;10272054;28;20072;-63
2021/10/09 16:18:22;;;;;;;26.38;15.10;;;;;;;;;;10275160;28;20536;-60
2021/10/09 16:23:20;;;;;;;34.83;17.13;;;;;;;;;;10279711;28;20060;-61
2021/10/09 16:28:18;;;;;;;34.67;16.75;;;;;;;;;;10284321;28;20073;-61
2021/10/09 16:33:17;;;;;;;27.50;17.20;;;;;;;;;;10282573;28;20084;-63
2021/10/09 16:38:16;;;;;;;22.88;13.35;;;;;;;;;;10284764;28;20543;-62
2021/10/09 16:43:17;;;;;;;33.97;13.93;;;;;;;;;;10278345;28;20073;-62
2021/10/09 16:48:15;;;;;;;64.00;26.48;;;;;;;;;;10272756;28;20092;-61
2021/10/09 16:53:13;;;;;;;48.55;24.92;;;;;;;;;;10281531;28;20069;-62
2021/10/09 16:58:13;;;;;;;49.03;29.55;;;;;;;;;;10278585;28;20392;-63
2021/10/09 17:03:11;;;;;;;27.17;12.05;;;;;;;;;;10280856;28;20064;-61
2021/10/09 17:08:09;;;;;;;27.60;11.88;;;;;;;;;;10283487;28;20087;-63
2021/10/09 17:13:08;;;;;;;32.25;13.45;;;;;;;;;;10293610;28;20088;-62
2021/10/09 17:18:07;;;;;;;31.85;18.27;;;;;;;;;;10287673;28;20171;-60
2021/10/09 17:23:06;;;;;;;48.80;20.90;;;;;;;;;;10279665;28;20080;-62
2021/10/09 17:28:04;;;;;;;34.13;19.33;;;;;;;;;;10283174;28;20068;-61
2021/10/09 17:33:03;;;;;;;41.72;17.05;;;;;;;;;;10294553;28;20496;-60
2021/10/09 17:38:06;;;;;;;27.35;14.68;;;;;;;;;;10287501;28;20060;-62
2021/10/09 17:43:05;;;;;;;38.55;15.90;;;;;;;;;;10284935;28;20061;-62
2021/10/09 17:48:04;;;;;;;28.23;16.00;;;;;;;;;;10286535;28;20095;-61
2021/10/09 17:53:05;;;;;;;31.38;15.32;;;;;;;;;;10283619;28;20520;-62
2021/10/09 17:58:03;;;;;;;39.25;18.42;;;;;;;;;;10291936;28;20490;-62
2021/10/09 18:03:18;;;;;;;46.28;22.95;;;;;;;;;;10287895;28;20524;-61
2021/10/09 18:08:17;;;;;;;39.17;20.98;;;;;;;;;;10291047;28;20076;-62
2021/10/09 18:13:16;;;;;;;42.55;17.85;;;;;;;;;;10294958;28;20075;-62
2021/10/09 18:18:15;;;;;;;27.50;12.68;;;;;;;;;;10286176;28;20075;-61
2021/10/09 18:23:14;;;;;;;26.08;10.30;;;;;;;;;;10285562;28;20076;-62
2021/10/09 18:28:14;;;;;;;24.48;12.10;;;;;;;;;;10286940;28;20088;-61
2021/10/09 18:33:12;;;;;;;25.17;10.93;;;;;;;;;;10287055;28;20091;-61
2021/10/09 18:38:11;;;;;;;21.42;8.65;;;;;;;;;;10284240;28;20450;-62
2021/10/09 18:43:09;;;;;;;21.67;9.30;;;;;;;;;;10278466;28;20471;-62
2021/10/09 18:48:09;;;;;;;19.50;11.05;;;;;;;;;;10275841;28;20489;-65
2021/10/09 18:53:07;;;;;;;18.13;9.70;;;;;;;;;;10277502;28;20068;-64
2021/10/09 18:58:06;;;;;;;17.58;10.00;;;;;;;;;;10274251;28;20076;-64
2021/10/09 19:03:05;;;;;;;17.25;8.88;;;;;;;;;;10286073;28;20072;-64
2021/10/09 19:08:05;;;;;;;19.27;9.25;;;;;;;;;;10283403;28;20073;-64
2021/10/09 19:13:04;;;;;;;22.83;8.88;;;;;;;;;;10285221;28;20069;-63
2021/10/09 19:18:02;;;;;;;22.13;9.20;;;;;;;;;;10273308;28;20071;-63
2021/10/09 19:23:04;;;;;;;12.40;7.78;;;;;;;;;;10276986;28;20101;-63
2021/10/09 19:28:03;;;;;;;19.17;10.43;;;;;;;;;;10278680;28;20064;-63
2021/10/09 19:33:06;;;;;;;22.85;10.13;;;;;;;;;;10279406;28;20091;-64
2021/10/09 19:38:06;;;;;;;23.05;10.73;;;;;;;;;;10274345;28;20473;-63
2021/10/09 19:43:06;;;;;;;43.03;15.13;;;;;;;;;;10284119;28;20069;-63
2021/10/09 19:48:05;;;;;;;21.75;10.40;;;;;;;;;;10282188;28;20114;-62
2021/10/09 19:53:15;;;;;;;19.65;10.45;;;;;;;;;;10271554;28;20075;-62
2021/10/09 19:58:14;;;;;;;28.38;9.80;;;;;;;;;;10272571;28;20061;-62
2021/10/09 20:03:13;;;;;;;24.88;10.75;;;;;;;;;;10275466;28;20102;-62
2021/10/09 20:08:12;;;;;;;30.33;9.60;;;;;;;;;;10276982;28;20084;-62
2021/10/09 20:13:11;;;;;;;27.20;11.65;;;;;;;;;;10277038;28;20081;-62
2021/10/09 20:18:09;;;;;;;31.85;12.88;;;;;;;;;;10278789;28;20064;-62
2021/10/09 20:23:07;;;;;;;18.20;10.77;;;;;;;;;;10280801;28;20068;-62
2021/10/09 20:28:07;;;;;;;25.98;9.65;;;;;;;;;;10272582;28;20471;-63
2021/10/09 20:33:06;;;;;;;22.65;11.40;;;;;;;;;;10295473;28;20131;-62
2021/10/09 20:38:05;;;;;;;23.58;11.00;;;;;;;;;;10290535;28;20800;-63
2021/10/09 20:43:04;;;;;;;27.02;12.10;;;;;;;;;;10286397;28;20983;-61
2021/10/09 20:48:04;;;;;;;25.52;11.15;;;;;;;;;;10282720;28;20104;-60
2021/10/09 20:53:03;;;;;;;28.25;10.65;;;;;;;;;;10290832;28;20110;-61
2021/10/09 20:58:02;;;;;;;27.23;12.30;;;;;;;;;;10289079;28;20132;-61
2021/10/09 21:03:00;;;;;;;21.30;10.35;;;;;;;;;;10295995;28;20064;-62
2021/10/09 21:08:01;;;;;;;27.27;12.52;;;;;;;;;;10291825;28;20072;-61
2021/10/09 21:13:04;;;;;;;21.95;10.75;;;;;;;;;;10293465;28;20068;-61
2021/10/09 21:23:20;;;;;;;30.50;11.75;;;;;;;;;;10294096;28;20337;-60
2021/10/09 21:28:18;;;;;;;19.88;10.40;;;;;;;;;;10293896;28;20065;-61
2021/10/09 21:33:16;;;;;;;29.33;12.20;;;;;;;;;;10297026;28;20524;-61
2021/10/09 21:38:29;;;;;;;26.25;11.18;;;;;;;;;;10278976;28;20068;-62
2021/10/09 21:43:27;;;;;;;22.23;10.88;;;;;;;;;;10297467;28;20071;-61
2021/10/09 21:48:25;;;;;;;19.08;9.95;;;;;;;;;;10285928;28;20140;-61
2021/10/09 21:53:24;;;;;;;27.58;10.35;;;;;;;;;;10284629;28;20139;-61
2021/10/09 21:58:28;;;;;;;25.65;10.80;;;;;;;;;;10292022;28;20115;-62
2021/10/09 22:19:20;;;;;;;26.20;10.18;;;;;;;;;;10281521;28;19956;-61
2021/10/09 22:34:51;;;;;;;26.42;11.77;;;;;;;;;;10285941;28;19970;-61
2021/10/09 22:39:49;;;;;;;26.25;10.10;;;;;;;;;;10298317;28;20071;-61
2021/10/09 22:44:47;;;;;;;27.27;10.73;;;;;;;;;;10287550;28;20081;-61
2021/10/09 22:49:45;;;;;;;17.10;9.57;;;;;;;;;;10287238;28;20077;-61
2021/10/09 22:54:45;;;;;;;20.20;9.25;;;;;;;;;;10278318;28;20533;-62
2021/10/09 22:59:43;;;;;;;24.23;10.35;;;;;;;;;;10289380;28;20060;-62
2021/10/09 23:04:42;;;;;;;28.30;11.15;;;;;;;;;;10288691;28;20473;-61
2021/10/09 23:09:40;;;;;;;31.80;11.13;;;;;;;;;;10292458;28;20083;-62
2021/10/09 23:14:40;;;;;;;31.80;12.27;;;;;;;;;;10287368;28;20478;-62
2021/10/09 23:19:38;;;;;;;21.70;10.35;;;;;;;;;;10282386;28;20358;-62
2021/10/09 23:24:37;;;;;;;25.85;11.23;;;;;;;;;;10288640;28;20064;-62
2021/10/09 23:29:35;;;;;;;22.02;10.90;;;;;;;;;;10274715;28;20612;-62
2021/10/09 23:34:35;;;;;;;24.60;11.63;;;;;;;;;;10296055;28;20080;-62
2021/10/09 23:39:33;;;;;;;18.23;10.38;;;;;;;;;;10288119;28;20080;-61
2021/10/09 23:44:32;;;;;;;22.52;10.55;;;;;;;;;;10273577;28;20064;-61
2021/10/09 23:49:31;;;;;;;20.70;10.07;;;;;;;;;;10297508;28;20076;-61
2021/10/09 23:54:30;;;;;;;26.88;11.32;;;;;;;;;;10286738;28;20079;-61
2021/10/09 23:59:28;;;;;;;23.02;12.00;;;;;;;;;;10285105;28;20064;-62
